createdAt,value
2017-10-10T00:01:24.776Z,26.57
2017-10-10T00:03:52.291Z,21.10
2017-10-10T00:06:19.781Z,23.50
2017-10-10T00:08:47.270Z,28.23
2017-10-10T00:11:14.809Z,22.27
2017-10-10T00:13:42.301Z,26.37
2017-10-10T00:16:09.796Z,19.50
2017-10-10T00:18:37.303Z,25.50
2017-10-10T00:23:38.597Z,25.00
2017-10-10T00:26:06.081Z,21.90
2017-10-10T00:28:33.593Z,22.30
2017-10-10T00:31:01.147Z,27.03
2017-10-10T00:33:28.667Z,26.23
2017-10-10T00:35:56.169Z,23.27
2017-10-10T00:38:23.655Z,23.83
2017-10-10T00:40:51.164Z,25.20
2017-10-10T00:43:18.747Z,22.00
2017-10-10T00:45:46.289Z,24.33
2017-10-10T00:48:13.775Z,24.10
2017-10-10T00:50:41.324Z,28.70
2017-10-10T00:53:08.993Z,26.53
2017-10-10T00:55:36.475Z,24.23
2017-10-10T00:58:03.967Z,24.63
2017-10-10T01:00:31.495Z,27.00
2017-10-10T01:02:59.020Z,27.13
2017-10-10T01:05:26.506Z,24.13
2017-10-10T01:07:54.240Z,26.70
2017-10-10T01:10:21.729Z,26.80
2017-10-10T01:12:49.212Z,27.83
2017-10-10T01:15:16.755Z,28.23
2017-10-10T01:17:44.243Z,26.03
2017-10-10T01:20:11.731Z,21.77
2017-10-10T01:22:39.252Z,28.33
2017-10-10T01:25:06.737Z,30.00
2017-10-10T01:27:34.226Z,31.00
2017-10-10T01:30:01.756Z,29.40
2017-10-10T01:32:29.256Z,28.37
2017-10-10T01:34:56.753Z,29.63
2017-10-10T01:39:58.180Z,23.63
2017-10-10T01:42:25.695Z,28.77
2017-10-10T01:44:53.187Z,32.47
2017-10-10T01:47:20.683Z,30.37
2017-10-10T01:49:48.219Z,30.00
2017-10-10T01:52:15.716Z,27.40
2017-10-10T01:54:43.212Z,28.57
2017-10-10T01:57:10.770Z,26.70
2017-10-10T01:59:38.267Z,32.00
2017-10-10T02:02:05.756Z,30.80
2017-10-10T02:04:33.295Z,32.50
2017-10-10T02:07:00.796Z,28.63
2017-10-10T02:09:28.287Z,27.53
2017-10-10T02:11:56.000Z,26.23
2017-10-10T02:14:23.533Z,24.90
2017-10-10T02:16:51.141Z,24.10
2017-10-10T02:19:18.808Z,23.80
2017-10-10T02:21:46.381Z,24.07
2017-10-10T02:24:13.911Z,25.80
2017-10-10T02:26:41.475Z,24.53
2017-10-10T02:29:09.004Z,22.53
2017-10-10T02:37:18.194Z,26.33
2017-10-10T02:39:45.686Z,24.07
2017-10-10T02:42:13.190Z,25.10
2017-10-10T02:44:40.729Z,23.30
2017-10-10T02:47:08.226Z,26.20
2017-10-10T02:49:35.767Z,24.97
2017-10-10T02:52:03.263Z,28.03
2017-10-10T02:54:30.796Z,24.03
2017-10-10T02:56:58.331Z,25.30
2017-10-10T02:59:25.821Z,24.20
2017-10-10T03:01:53.324Z,23.10
2017-10-10T03:04:20.860Z,23.37
2017-10-10T03:06:48.355Z,26.37
2017-10-10T03:09:15.849Z,23.43
2017-10-10T03:11:43.383Z,19.90
2017-10-10T03:14:10.862Z,23.90
2017-10-10T03:16:38.360Z,22.10
2017-10-10T03:19:05.900Z,29.90
2017-10-10T03:21:33.430Z,21.30
2017-10-10T03:24:00.924Z,21.70
2017-10-10T03:26:28.461Z,22.67
2017-10-10T03:28:55.953Z,22.10
2017-10-10T03:31:23.451Z,25.60
2017-10-10T03:33:50.995Z,23.20
2017-10-10T03:36:18.483Z,24.83
2017-10-10T03:38:45.968Z,23.10
2017-10-10T03:41:13.510Z,25.27
2017-10-10T03:43:41.058Z,24.23
2017-10-10T03:46:08.625Z,27.43
2017-10-10T03:48:36.122Z,23.47
2017-10-10T03:51:03.739Z,25.03
2017-10-10T03:53:31.236Z,26.60
2017-10-10T03:55:58.740Z,26.90
2017-10-10T03:58:26.285Z,29.80
2017-10-10T04:00:53.775Z,25.33
2017-10-10T04:03:21.290Z,25.10
2017-10-10T04:05:49.097Z,25.30
2017-10-10T04:08:16.593Z,23.90
2017-10-10T04:10:44.100Z,28.93
2017-10-10T04:13:11.794Z,28.30
2017-10-10T04:15:39.293Z,26.37
2017-10-10T04:18:06.790Z,24.87
2017-10-10T04:20:34.347Z,30.90
2017-10-10T04:23:01.849Z,41.43
2017-10-10T04:25:29.336Z,28.80
2017-10-10T04:27:56.856Z,31.53
2017-10-10T04:30:24.353Z,35.40
2017-10-10T04:32:51.950Z,29.47
2017-10-10T04:35:19.451Z,42.13
2017-10-10T04:37:46.949Z,43.47
2017-10-10T04:40:14.473Z,33.07
2017-10-10T04:42:42.075Z,32.50
2017-10-10T04:45:09.609Z,32.43
2017-10-10T04:47:37.192Z,29.63
2017-10-10T04:50:04.683Z,32.70
2017-10-10T04:52:32.200Z,29.90
2017-10-10T04:54:59.718Z,30.77
2017-10-10T04:57:27.223Z,33.57
2017-10-10T04:59:54.711Z,32.40
2017-10-10T05:02:22.239Z,29.33
2017-10-10T05:04:49.750Z,35.40
2017-10-10T05:07:17.236Z,35.27
2017-10-10T05:09:44.789Z,32.63
2017-10-10T05:12:12.379Z,30.73
2017-10-10T05:14:39.873Z,41.03
2017-10-10T05:17:07.496Z,35.93
2017-10-10T05:19:34.989Z,35.63
2017-10-10T05:22:02.537Z,52.70
2017-10-10T05:24:30.030Z,37.70
2017-10-10T05:26:57.630Z,45.53
2017-10-10T05:29:25.152Z,36.90
2017-10-10T05:31:52.771Z,37.20
2017-10-10T05:34:20.260Z,39.03
2017-10-10T05:36:47.747Z,40.30
2017-10-10T05:39:15.265Z,41.80
2017-10-10T05:41:42.779Z,52.83
2017-10-10T05:44:10.300Z,28.27
2017-10-10T05:46:37.820Z,43.60
2017-10-10T05:49:05.368Z,45.50
2017-10-10T05:51:32.899Z,36.90
2017-10-10T05:54:00.447Z,42.90
2017-10-10T05:56:27.951Z,43.50
2017-10-10T05:58:55.500Z,38.33
2017-10-10T06:01:23.048Z,34.53
2017-10-10T06:03:50.544Z,36.77
2017-10-10T06:06:18.100Z,32.97
2017-10-10T06:08:45.591Z,38.70
2017-10-10T06:11:13.091Z,30.83
2017-10-10T06:13:40.667Z,31.97
2017-10-10T06:16:08.161Z,31.00
2017-10-10T06:18:35.759Z,36.50
2017-10-10T06:21:03.324Z,46.77
2017-10-10T06:23:30.858Z,37.20
2017-10-10T06:25:58.349Z,33.80
2017-10-10T06:28:25.839Z,31.60
2017-10-10T06:30:53.400Z,36.40
2017-10-10T06:33:20.979Z,29.50
2017-10-10T06:35:48.483Z,29.17
2017-10-10T06:38:16.008Z,30.37
2017-10-10T06:40:43.536Z,30.77
2017-10-10T06:43:11.032Z,28.73
2017-10-10T06:45:38.532Z,33.13
2017-10-10T06:48:06.097Z,33.00
2017-10-10T06:50:33.633Z,23.60
2017-10-10T06:53:01.206Z,24.90
2017-10-10T06:55:28.950Z,27.27
2017-10-10T06:57:56.528Z,22.03
2017-10-10T07:00:24.076Z,24.37
2017-10-10T07:02:51.636Z,27.83
2017-10-10T07:05:19.145Z,19.53
2017-10-10T07:07:46.743Z,20.33
2017-10-10T07:10:14.308Z,22.13
2017-10-10T07:12:41.803Z,23.13
2017-10-10T07:15:09.342Z,26.60
2017-10-10T07:17:36.832Z,19.67
2017-10-10T07:20:04.341Z,22.57
2017-10-10T07:22:31.900Z,25.63
2017-10-10T07:24:59.472Z,23.63
2017-10-10T07:27:26.973Z,71.17
2017-10-10T07:29:54.487Z,21.17
2017-10-10T07:32:22.128Z,17.73
2017-10-10T07:34:49.620Z,17.50
2017-10-10T07:37:17.117Z,21.20
2017-10-10T07:39:44.647Z,20.10
2017-10-10T07:42:12.210Z,20.20
2017-10-10T07:44:39.714Z,26.33
2017-10-10T07:47:07.259Z,21.07
2017-10-10T07:49:34.759Z,19.37
2017-10-10T07:52:02.247Z,16.60
2017-10-10T07:54:29.775Z,16.37
2017-10-10T07:56:57.320Z,23.13
2017-10-10T07:59:24.983Z,14.13
2017-10-10T08:01:52.475Z,13.70
2017-10-10T08:04:20.003Z,20.70
2017-10-10T08:06:47.542Z,27.03
2017-10-10T08:09:15.036Z,13.40
2017-10-10T08:11:42.542Z,17.73
2017-10-10T08:14:10.059Z,17.53
2017-10-10T08:16:37.617Z,23.33
2017-10-10T08:19:05.137Z,18.57
2017-10-10T08:21:33.081Z,18.20
2017-10-10T08:24:00.651Z,18.60
2017-10-10T08:26:28.202Z,17.57
2017-10-10T08:28:55.714Z,20.43
2017-10-10T08:31:23.210Z,15.97
2017-10-10T08:33:50.757Z,14.30
2017-10-10T08:36:18.251Z,18.37
2017-10-10T08:38:45.830Z,11.17
2017-10-10T08:41:13.361Z,9.73
2017-10-10T08:43:40.852Z,7.83
2017-10-10T08:46:08.348Z,10.70
2017-10-10T08:48:36.075Z,8.70
2017-10-10T08:51:03.563Z,12.20
2017-10-10T08:53:31.055Z,7.73
2017-10-10T08:55:58.836Z,12.07
2017-10-10T08:58:26.434Z,12.33
2017-10-10T09:00:53.963Z,10.93
2017-10-10T09:03:21.531Z,15.83
2017-10-10T09:05:49.081Z,12.90
2017-10-10T09:08:16.619Z,17.77
2017-10-10T09:10:44.332Z,15.50
2017-10-10T09:13:11.834Z,13.40
2017-10-10T09:15:39.352Z,15.13
2017-10-10T09:18:06.884Z,16.10
2017-10-10T09:20:34.379Z,19.90
2017-10-10T09:23:01.874Z,17.33
2017-10-10T09:25:29.596Z,21.53
2017-10-10T09:27:57.108Z,29.57
2017-10-10T09:30:24.600Z,18.50
2017-10-10T09:32:52.257Z,23.53
2017-10-10T09:35:19.803Z,26.87
2017-10-10T09:37:47.298Z,18.90
2017-10-10T09:40:14.847Z,19.97
2017-10-10T09:42:42.377Z,22.17
2017-10-10T09:45:09.872Z,21.83
2017-10-10T09:47:37.421Z,24.80
2017-10-10T09:50:04.952Z,21.27
2017-10-10T09:52:32.448Z,21.87
2017-10-10T09:54:59.989Z,22.60
2017-10-10T09:57:27.488Z,26.70
2017-10-10T09:59:54.984Z,27.30
2017-10-10T10:02:22.543Z,34.90
2017-10-10T10:04:50.035Z,45.17
2017-10-10T10:07:17.532Z,37.47
2017-10-10T10:09:45.060Z,34.63
2017-10-10T10:12:12.551Z,35.77
2017-10-10T10:14:40.094Z,37.20
2017-10-10T10:17:07.584Z,32.70
2017-10-10T10:19:35.100Z,32.60
2017-10-10T10:22:02.651Z,34.13
2017-10-10T10:24:30.151Z,39.77
2017-10-10T10:26:57.733Z,33.27
2017-10-10T10:29:25.292Z,33.90
2017-10-10T10:31:52.795Z,37.60
2017-10-10T10:34:20.285Z,42.10
2017-10-10T10:36:47.825Z,34.90
2017-10-10T10:39:15.320Z,41.00
2017-10-10T10:41:42.872Z,32.97
2017-10-10T10:44:10.555Z,41.40
2017-10-10T10:46:38.094Z,35.40
2017-10-10T10:49:05.663Z,33.63
2017-10-10T10:51:33.213Z,40.23
2017-10-10T10:54:00.875Z,40.03
2017-10-10T10:56:28.375Z,42.00
2017-10-10T10:58:55.869Z,35.40
2017-10-10T11:01:23.419Z,39.77
2017-10-10T11:03:50.921Z,39.97
2017-10-10T11:06:18.418Z,34.10
2017-10-10T11:08:45.980Z,36.93
2017-10-10T11:11:13.473Z,40.97
2017-10-10T11:13:41.065Z,37.80
2017-10-10T11:16:08.597Z,34.30
2017-10-10T11:18:36.164Z,29.13
2017-10-10T11:21:03.734Z,33.93
2017-10-10T11:23:31.306Z,38.80
2017-10-10T11:25:59.044Z,32.10
2017-10-10T11:28:26.539Z,35.17
2017-10-10T11:30:54.031Z,31.10
2017-10-10T11:33:21.575Z,31.87
2017-10-10T11:35:49.076Z,32.77
2017-10-10T11:38:16.586Z,31.80
2017-10-10T11:40:44.120Z,33.97
2017-10-10T11:43:11.615Z,31.60
2017-10-10T11:45:39.104Z,35.07
2017-10-10T11:48:06.668Z,31.30
2017-10-10T11:50:34.244Z,32.17
2017-10-10T11:53:01.737Z,31.33
2017-10-10T11:55:29.351Z,35.20
2017-10-10T11:57:56.913Z,33.40
2017-10-10T12:00:24.412Z,29.70
2017-10-10T12:02:52.019Z,30.50
2017-10-10T12:05:19.635Z,38.33
2017-10-10T12:07:47.123Z,34.47
2017-10-10T12:10:14.660Z,38.30
2017-10-10T12:12:42.143Z,44.00
2017-10-10T12:15:09.635Z,36.33
2017-10-10T12:17:37.168Z,37.30
2017-10-10T12:20:04.669Z,36.00
2017-10-10T12:22:32.160Z,35.77
2017-10-10T12:24:59.693Z,37.90
2017-10-10T12:27:27.184Z,39.87
2017-10-10T12:29:54.766Z,45.20
2017-10-10T12:32:22.308Z,45.43
2017-10-10T12:34:49.804Z,44.43
2017-10-10T12:37:17.303Z,36.23
2017-10-10T12:39:44.905Z,46.37
2017-10-10T12:42:12.402Z,45.10
2017-10-10T12:44:39.908Z,37.70
2017-10-10T12:47:07.684Z,41.27
2017-10-10T12:49:35.193Z,39.97
2017-10-10T12:52:02.718Z,46.30
2017-10-10T12:54:30.260Z,42.60
2017-10-10T12:56:57.756Z,39.83
2017-10-10T12:59:25.265Z,77.97
2017-10-10T13:01:52.842Z,41.10
2017-10-10T13:04:20.341Z,37.70
2017-10-10T13:06:47.845Z,37.50
2017-10-10T13:09:15.387Z,33.30
2017-10-10T13:11:42.880Z,35.27
2017-10-10T13:14:10.372Z,29.30
2017-10-10T13:16:37.902Z,29.97
2017-10-10T13:19:05.393Z,29.50
2017-10-10T13:21:33.177Z,31.17
2017-10-10T13:24:00.787Z,26.90
2017-10-10T13:26:28.293Z,28.47
2017-10-10T13:28:55.792Z,30.80
2017-10-10T13:31:23.349Z,30.47
2017-10-10T13:33:50.840Z,31.20
2017-10-10T13:36:18.392Z,28.63
2017-10-10T13:38:46.039Z,32.87
2017-10-10T13:41:13.529Z,37.33
2017-10-10T13:43:41.158Z,38.20
2017-10-10T13:46:08.653Z,38.60
2017-10-10T13:48:36.143Z,36.10
2017-10-10T13:51:03.674Z,35.60
2017-10-10T13:53:31.171Z,39.67
2017-10-10T13:55:58.736Z,43.50
2017-10-10T13:58:26.271Z,37.67
2017-10-10T14:00:53.762Z,35.80
2017-10-10T14:03:21.260Z,55.83
2017-10-10T14:05:48.812Z,36.10
2017-10-10T14:08:16.323Z,33.27
2017-10-10T14:10:43.827Z,39.63
2017-10-10T14:13:11.651Z,38.60
2017-10-10T14:15:39.148Z,31.63
2017-10-10T14:18:06.666Z,35.10
2017-10-10T14:20:34.319Z,36.30
2017-10-10T14:23:01.810Z,31.30
2017-10-10T14:25:29.303Z,29.30
2017-10-10T14:27:56.899Z,33.23
2017-10-10T14:30:24.411Z,41.13
2017-10-10T14:32:51.943Z,35.03
2017-10-10T14:35:19.444Z,35.93
2017-10-10T14:37:46.953Z,36.83
2017-10-10T14:40:14.511Z,39.13
2017-10-10T14:42:42.008Z,34.20
2017-10-10T14:45:09.496Z,29.43
2017-10-10T14:47:37.075Z,30.50
2017-10-10T14:50:04.564Z,34.13
2017-10-10T14:52:32.082Z,38.80
2017-10-10T14:54:59.613Z,37.07
2017-10-10T14:57:27.118Z,39.70
2017-10-10T14:59:54.668Z,40.50
2017-10-10T15:02:22.159Z,35.87
2017-10-10T15:04:49.658Z,31.53
2017-10-10T15:07:17.208Z,34.37
2017-10-10T15:09:44.699Z,56.17
2017-10-10T15:12:12.188Z,38.57
2017-10-10T15:14:39.723Z,30.87
2017-10-10T15:17:07.221Z,31.83
2017-10-10T15:19:34.716Z,34.93
2017-10-10T15:22:02.286Z,29.93
2017-10-10T15:24:29.847Z,31.97
2017-10-10T15:26:57.341Z,35.87
2017-10-10T15:29:24.963Z,29.67
2017-10-10T15:31:52.451Z,26.67
2017-10-10T15:34:19.979Z,29.27
2017-10-10T15:36:47.542Z,34.70
2017-10-10T15:39:15.032Z,32.60
2017-10-10T15:41:42.577Z,28.03
2017-10-10T15:44:10.068Z,28.73
2017-10-10T15:46:37.566Z,27.20
2017-10-10T15:49:05.111Z,24.03
2017-10-10T15:51:33.435Z,28.50
2017-10-10T15:54:00.929Z,30.13
2017-10-10T15:56:28.527Z,25.17
2017-10-10T15:58:56.032Z,29.60
2017-10-10T16:01:23.852Z,24.57
2017-10-10T16:03:51.351Z,24.50
2017-10-10T16:06:18.853Z,29.27
2017-10-10T16:08:46.417Z,29.07
2017-10-10T16:11:13.902Z,32.57
2017-10-10T16:13:41.432Z,26.40
2017-10-10T16:16:08.975Z,33.27
2017-10-10T16:18:36.533Z,24.00
2017-10-10T16:21:04.029Z,22.70
2017-10-10T16:23:31.536Z,29.33
2017-10-10T16:25:59.151Z,24.03
2017-10-10T16:28:26.647Z,24.47
2017-10-10T16:30:54.157Z,35.00
2017-10-10T16:33:21.917Z,24.40
2017-10-10T16:35:49.411Z,24.93
2017-10-10T16:38:16.897Z,32.97
2017-10-10T16:40:44.501Z,31.77
2017-10-10T16:43:12.067Z,28.57
2017-10-10T16:45:39.615Z,32.07
2017-10-10T16:48:07.187Z,26.10
2017-10-10T16:50:34.674Z,30.57
2017-10-10T16:53:02.389Z,41.63
2017-10-10T16:55:29.884Z,35.27
2017-10-10T16:57:57.497Z,25.80
2017-10-10T17:00:25.281Z,26.40
2017-10-10T17:02:52.831Z,24.43
2017-10-10T17:05:20.324Z,21.30
2017-10-10T17:07:50.388Z,21.93
2017-10-10T17:10:17.920Z,18.90
2017-10-10T17:12:45.416Z,22.63
2017-10-10T17:15:13.011Z,22.77
2017-10-10T17:17:40.769Z,23.10
2017-10-10T17:20:08.317Z,29.73
2017-10-10T17:22:35.813Z,27.63
2017-10-10T17:25:03.369Z,28.80
2017-10-10T17:27:30.889Z,22.33
2017-10-10T17:29:58.383Z,30.47
2017-10-10T17:32:25.920Z,26.63
2017-10-10T17:34:53.410Z,20.63
2017-10-10T17:37:20.912Z,25.80
2017-10-10T17:39:48.476Z,24.27
2017-10-10T17:42:15.991Z,25.47
2017-10-10T17:44:43.599Z,22.97
2017-10-10T17:47:11.155Z,21.70
2017-10-10T17:49:38.644Z,28.30
2017-10-10T17:52:06.139Z,21.80
2017-10-10T17:54:40.857Z,25.10
2017-10-10T17:57:08.385Z,27.40
2017-10-10T17:59:35.884Z,34.80
2017-10-10T18:02:03.387Z,32.23
2017-10-10T18:04:30.924Z,25.83
2017-10-10T18:06:58.473Z,25.77
2017-10-10T18:09:25.971Z,25.50
2017-10-10T18:11:53.470Z,27.23
2017-10-10T18:14:21.037Z,23.77
2017-10-10T18:16:48.601Z,22.70
2017-10-10T18:19:16.183Z,35.10
2017-10-10T18:21:43.711Z,28.37
2017-10-10T18:24:11.204Z,21.87
2017-10-10T18:26:38.760Z,23.67
2017-10-10T18:29:06.282Z,32.43
2017-10-10T18:31:33.787Z,38.10
2017-10-10T18:34:01.315Z,36.10
2017-10-10T18:36:28.919Z,45.80
2017-10-10T18:38:56.416Z,26.63
2017-10-10T18:41:24.051Z,33.63
2017-10-10T18:43:51.576Z,24.90
2017-10-10T18:46:19.075Z,32.20
2017-10-10T18:48:46.609Z,40.13
2017-10-10T18:51:14.149Z,32.17
2017-10-10T18:53:41.692Z,29.50
2017-10-10T18:56:09.185Z,51.37
2017-10-10T18:58:36.929Z,26.27
2017-10-10T19:01:04.491Z,40.97
2017-10-10T19:03:31.993Z,33.17
2017-10-10T19:05:59.727Z,37.17
2017-10-10T19:08:27.225Z,28.33
2017-10-10T19:10:54.837Z,35.10
2017-10-10T19:13:22.408Z,44.77
2017-10-10T19:15:49.902Z,30.70
2017-10-10T19:18:17.451Z,38.80
2017-10-10T19:20:44.997Z,31.50
2017-10-10T19:23:12.489Z,31.63
2017-10-10T19:25:40.000Z,41.10
2017-10-10T19:28:07.645Z,38.63
2017-10-10T19:30:35.139Z,29.83
2017-10-10T19:33:02.658Z,35.57
2017-10-10T19:35:30.183Z,35.53
2017-10-10T19:37:57.716Z,35.70
2017-10-10T19:40:25.205Z,33.57
2017-10-10T19:42:52.700Z,30.00
2017-10-10T19:45:20.232Z,58.10
2017-10-10T19:47:47.754Z,42.83
2017-10-10T19:50:15.274Z,55.03
2017-10-10T19:52:42.824Z,37.17
2017-10-10T19:55:10.351Z,40.90
2017-10-10T19:57:37.847Z,38.57
2017-10-10T20:00:05.352Z,32.93
2017-10-10T20:02:32.978Z,38.30
2017-10-10T20:05:00.468Z,32.63
2017-10-10T20:07:27.961Z,27.67
2017-10-10T20:09:55.507Z,38.20
2017-10-10T20:12:23.000Z,39.10
2017-10-10T20:14:50.548Z,45.80
2017-10-10T20:17:18.104Z,37.63
2017-10-10T20:19:45.592Z,34.60
2017-10-10T20:22:13.079Z,35.07
2017-10-10T20:24:40.608Z,38.27
2017-10-10T20:27:08.107Z,35.33
2017-10-10T20:29:35.620Z,41.13
2017-10-10T20:32:03.168Z,35.90
2017-10-10T20:34:31.539Z,37.23
2017-10-10T20:36:59.033Z,35.87
2017-10-10T20:39:26.598Z,34.10
2017-10-10T20:41:54.091Z,36.57
2017-10-10T20:44:21.586Z,39.73
2017-10-10T20:46:49.128Z,40.90
2017-10-10T20:49:16.687Z,31.83
2017-10-10T20:51:44.185Z,35.77
2017-10-10T20:54:11.807Z,38.83
2017-10-10T20:56:39.300Z,39.83
2017-10-10T20:59:06.801Z,36.07
2017-10-10T21:01:34.326Z,31.60
2017-10-10T21:04:01.827Z,41.33
2017-10-10T21:06:29.447Z,33.50
2017-10-10T21:08:56.948Z,35.90
2017-10-10T21:11:24.520Z,36.37
2017-10-10T21:13:52.039Z,35.83
2017-10-10T21:16:19.536Z,29.43
2017-10-10T21:18:47.095Z,34.27
2017-10-10T21:21:14.595Z,32.43
2017-10-10T21:23:42.121Z,36.57
2017-10-10T21:26:09.617Z,33.20
2017-10-10T21:28:37.121Z,38.03
2017-10-10T21:31:04.680Z,37.10
2017-10-10T21:33:32.163Z,34.40
2017-10-10T21:35:59.704Z,39.13
2017-10-10T21:38:27.363Z,35.57
2017-10-10T21:40:54.941Z,36.93
2017-10-10T21:43:22.483Z,36.10
2017-10-10T21:45:50.021Z,34.63
2017-10-10T21:48:17.515Z,46.60
2017-10-10T21:50:45.075Z,41.00
2017-10-10T21:53:12.851Z,32.23
2017-10-10T21:55:40.385Z,34.93
2017-10-10T21:58:07.919Z,32.10
2017-10-10T22:00:35.417Z,38.23
2017-10-10T22:03:03.157Z,53.13
2017-10-10T22:05:30.661Z,29.37
2017-10-10T22:07:58.199Z,76.80
2017-10-10T22:10:25.758Z,31.10
2017-10-10T22:12:53.291Z,31.97
2017-10-10T22:15:20.847Z,26.70
2017-10-10T22:17:48.380Z,31.00
2017-10-10T22:20:15.867Z,30.20
2017-10-10T22:22:43.360Z,32.43
2017-10-10T22:25:10.894Z,39.73
2017-10-10T22:27:38.393Z,27.37
2017-10-10T22:30:06.002Z,33.07
2017-10-10T22:32:33.584Z,26.43
2017-10-10T22:35:01.087Z,35.10
2017-10-10T22:37:28.651Z,34.93
2017-10-10T22:39:56.159Z,38.73
2017-10-10T22:42:23.695Z,30.37
2017-10-10T22:44:51.370Z,26.60
2017-10-10T22:47:18.866Z,37.83
2017-10-10T22:49:46.368Z,25.43
2017-10-10T22:52:13.904Z,32.17
2017-10-10T22:54:41.493Z,24.60
2017-10-10T22:57:09.012Z,25.20
2017-10-10T22:59:36.572Z,27.20
2017-10-10T23:02:04.069Z,24.40
2017-10-10T23:04:31.567Z,24.57
2017-10-10T23:06:59.267Z,25.70
2017-10-10T23:09:26.862Z,27.77
2017-10-10T23:11:54.357Z,22.77
2017-10-10T23:14:21.898Z,23.07
2017-10-10T23:16:49.468Z,22.00
2017-10-10T23:19:16.970Z,24.20
2017-10-10T23:21:44.499Z,25.80
2017-10-10T23:24:12.028Z,34.03
2017-10-10T23:26:39.525Z,20.63
2017-10-10T23:29:07.045Z,24.33
2017-10-10T23:31:34.547Z,24.23
2017-10-10T23:34:02.104Z,24.13
2017-10-10T23:36:29.699Z,21.13
2017-10-10T23:38:57.268Z,24.20
2017-10-10T23:41:25.022Z,21.37
2017-10-10T23:43:52.579Z,26.07
2017-10-10T23:46:20.096Z,18.77
2017-10-10T23:48:47.662Z,24.40
2017-10-10T23:51:15.190Z,19.17
2017-10-10T23:53:42.738Z,21.27
2017-10-10T23:56:10.275Z,26.07
2017-10-10T23:58:37.768Z,18.50
